CheckWX is a tool to help pilots better visualize weather data.  It is not intended as a substitute for an official pre-flight weather briefing.

13:11:57 UTC

KSHV TAF
Shreveport Regional Airport
Shreveport, Louisiana, USA
KSHV 161146Z 1612/1712 19007KT P6SM FEW025 BKN250 TEMPO 1612/1614 33010G22KT 3SM -TSRA BKN025CB OVC030 FM161400 21013KT P6SM BKN035 FM162100 21012G18KT P6SM VCTS BKN050CB FM170000 21010KT P6SM BKN100 FM170600 11003KT 5SM -TSRA OVC050CB

Jun-16@
12:00 UTC

Jun-16 @ 12:00 UTC

Jun-16@
14:00 UTC

Jun-16 @ 14:00 UTC

KSHV 161146Z 1612/1712 19007KT P6SM FEW025 BKN250
Wind
  • 190° at 7 KTS
Cloud Levels
  • Few at 2,500' AGL
  • Broken at 25,000' AGL

Jun-16@
12:00 UTC

Jun-16 @ 12:00 UTC

Jun-16@
14:00 UTC

Jun-16 @ 14:00 UTC

TEMPO 1612/1614 33010G22KT 3SM -TSRA BKN025CB OVC030

Temporary

Temporary Changes expected for less than half the time period

Wind
  • 330° at 10 KTS
  • {Gusting to 22 KTS
Conditions
Light Thunderstorm, Light Rain
Cloud Levels
  • Broken at 2,500' AGL
  • Overcast at 3,000' AGL

Jun-16@
14:00 UTC

Jun-16 @ 14:00 UTC

Jun-16@
21:00 UTC

Jun-16 @ 21:00 UTC

FM161400 21013KT P6SM BKN035

From

From Standard forecast or significant change

Wind
  • 210° at 13 KTS
Cloud Levels
  • Broken at 3,500' AGL

Jun-16@
21:00 UTC

Jun-16 @ 21:00 UTC

Jun-17@
00:00 UTC

Jun-17 @ 00:00 UTC

FM162100 21012G18KT P6SM VCTS BKN050CB

From

From Standard forecast or significant change

Wind
  • 210° at 12 KTS
  • {Gusting to 18 KTS
Conditions
Area Thunderstorm
Cloud Levels
  • Broken at 5,000' AGL

Jun-17@
00:00 UTC

Jun-17 @ 00:00 UTC

Jun-17@
06:00 UTC

Jun-17 @ 06:00 UTC

FM170000 21010KT P6SM BKN100

From

From Standard forecast or significant change

Wind
  • 210° at 10 KTS
Cloud Levels
  • Broken at 10,000' AGL

Jun-17@
06:00 UTC

Jun-17 @ 06:00 UTC

Jun-17@
12:00 UTC

Jun-17 @ 12:00 UTC

FM170600 11003KT 5SM -TSRA OVC050CB

From

From Standard forecast or significant change

Wind
  • 110° at 3 KTS
Conditions
Light Thunderstorm, Light Rain
Cloud Levels
  • Overcast at 5,000' AGL